Time;durP1;ratioP1;P1;durP2;ratioP2;P2;SDS_P1;SDS_P2;PMS_P1;PMS_P2;Temp;Humidity;BMP_temperature;BMP_pressure;BME280_temperature;BME280_humidity;BME280_pressure;Samples;Min_cycle;Max_cycle;Signal;HPM_P1;HPM_P2
2020/12/24 00:01:40;;;;;;;3.30;0.95;;;;;;;;;;5071868;28;20025;-80
2020/12/24 00:04:06;;;;;;;4.03;1.10;;;;;;;;;;5073302;28;20074;-80
2020/12/24 00:06:32;;;;;;;1.98;0.90;;;;;;;;;;5071734;28;20020;-79
2020/12/24 00:08:58;;;;;;;5.10;1.30;;;;;;;;;;5071781;28;20028;-80
2020/12/24 00:11:25;;;;;;;7.15;1.45;;;;;;;;;;5071598;28;20460;-80
2020/12/24 00:13:51;;;;;;;5.53;1.58;;;;;;;;;;5071481;28;20031;-79
2020/12/24 00:16:17;;;;;;;4.55;1.30;;;;;;;;;;5071754;28;20027;-79
2020/12/24 00:18:43;;;;;;;7.43;1.42;;;;;;;;;;5071563;28;20024;-79
2020/12/24 00:21:09;;;;;;;3.22;1.40;;;;;;;;;;5071462;28;20338;-79
2020/12/24 00:23:35;;;;;;;3.60;1.15;;;;;;;;;;5071387;28;20166;-79
2020/12/24 00:26:03;;;;;;;2.25;1.10;;;;;;;;;;5071588;28;20537;-78
2020/12/24 00:28:30;;;;;;;6.22;1.50;;;;;;;;;;5072609;28;20032;-78
2020/12/24 00:30:56;;;;;;;8.30;2.47;;;;;;;;;;5072830;28;20079;-79
2020/12/24 00:33:22;;;;;;;6.97;2.25;;;;;;;;;;5072531;28;20047;-79
2020/12/24 00:35:48;;;;;;;9.50;2.10;;;;;;;;;;5072839;28;20055;-79
2020/12/24 00:38:14;;;;;;;5.32;1.60;;;;;;;;;;5071179;28;20484;-79
2020/12/24 00:40:40;;;;;;;7.22;1.83;;;;;;;;;;5071225;28;20496;-79
2020/12/24 00:43:06;;;;;;;6.30;1.80;;;;;;;;;;5071439;28;20025;-79
2020/12/24 00:45:32;;;;;;;9.70;2.80;;;;;;;;;;5071203;28;20024;-79
2020/12/24 00:47:58;;;;;;;9.63;3.03;;;;;;;;;;5072229;28;20028;-79
2020/12/24 00:50:24;;;;;;;7.20;2.50;;;;;;;;;;5071195;28;20016;-79
2020/12/24 00:52:50;;;;;;;10.07;2.60;;;;;;;;;;5071400;28;20027;-79
2020/12/24 00:55:16;;;;;;;7.45;2.60;;;;;;;;;;5071313;28;20035;-79
2020/12/24 00:57:42;;;;;;;6.88;2.58;;;;;;;;;;5071021;28;20028;-79
2020/12/24 01:00:08;;;;;;;4.90;2.22;;;;;;;;;;5072771;28;20372;-79
2020/12/24 01:02:35;;;;;;;6.25;2.67;;;;;;;;;;5072295;28;20377;-79
2020/12/24 01:05:01;;;;;;;8.85;2.42;;;;;;;;;;5071140;28;20020;-79
2020/12/24 01:07:27;;;;;;;8.73;3.03;;;;;;;;;;5070902;28;20036;-79
2020/12/24 01:09:53;;;;;;;9.10;2.75;;;;;;;;;;5072220;28;20361;-80
2020/12/24 01:12:19;;;;;;;11.10;2.67;;;;;;;;;;5071133;28;20013;-79
2020/12/24 01:14:45;;;;;;;9.15;2.72;;;;;;;;;;5072509;28;20021;-79
2020/12/24 01:17:11;;;;;;;10.73;2.10;;;;;;;;;;5070757;28;20024;-79
2020/12/24 01:19:37;;;;;;;7.82;2.20;;;;;;;;;;5070653;28;20020;-80
2020/12/24 01:22:03;;;;;;;10.27;2.58;;;;;;;;;;5071117;28;20046;-80
2020/12/24 01:24:29;;;;;;;15.63;2.35;;;;;;;;;;5070670;28;20467;-81
2020/12/24 01:26:55;;;;;;;8.85;2.15;;;;;;;;;;5071060;28;20017;-81
2020/12/24 01:29:21;;;;;;;11.95;1.95;;;;;;;;;;5070838;28;20460;-80
2020/12/24 01:31:48;;;;;;;12.23;2.33;;;;;;;;;;5070543;28;20044;-81
2020/12/24 01:34:18;;;;;;;8.32;1.80;;;;;;;;;;5070826;28;20070;-80
2020/12/24 01:36:44;;;;;;;9.45;1.50;;;;;;;;;;5071739;28;20027;-80
2020/12/24 01:39:10;;;;;;;7.57;1.60;;;;;;;;;;5070769;28;20043;-81
2020/12/24 01:41:37;;;;;;;8.82;2.08;;;;;;;;;;5070615;28;20024;-81
2020/12/24 01:44:03;;;;;;;10.10;1.92;;;;;;;;;;5072103;28;20048;-80
2020/12/24 01:46:29;;;;;;;5.38;1.30;;;;;;;;;;5070561;28;20062;-79
2020/12/24 01:48:55;;;;;;;7.85;1.48;;;;;;;;;;5071990;28;20071;-79
2020/12/24 01:51:31;;;;;;;5.80;1.30;;;;;;;;;;5074041;28;20012;-79
2020/12/24 01:53:58;;;;;;;7.50;1.33;;;;;;;;;;5074655;28;20020;-79
2020/12/24 01:56:24;;;;;;;4.75;1.52;;;;;;;;;;5075909;28;20020;-79
2020/12/24 01:58:50;;;;;;;12.25;1.83;;;;;;;;;;5074350;28;20017;-79
2020/12/24 02:01:16;;;;;;;6.70;1.58;;;;;;;;;;5074328;28;20048;-79
2020/12/24 02:03:42;;;;;;;6.47;1.80;;;;;;;;;;5074106;28;20025;-79
2020/12/24 02:06:09;;;;;;;8.38;2.03;;;;;;;;;;5075328;28;20019;-79
2020/12/24 02:08:35;;;;;;;7.03;1.27;;;;;;;;;;5073844;28;20035;-79
2020/12/24 02:11:01;;;;;;;7.80;1.80;;;;;;;;;;5074045;28;20488;-79
2020/12/24 02:13:27;;;;;;;8.32;2.22;;;;;;;;;;5073606;28;20031;-79
2020/12/24 02:15:53;;;;;;;9.23;1.80;;;;;;;;;;5073849;28;20024;-81
2020/12/24 02:18:20;;;;;;;5.20;1.40;;;;;;;;;;5074088;28;20028;-81
2020/12/24 02:20:46;;;;;;;15.90;2.35;;;;;;;;;;5073846;28;20115;-81
2020/12/24 02:23:13;;;;;;;10.88;2.22;;;;;;;;;;5073767;28;20457;-81
2020/12/24 02:25:42;;;;;;;6.97;1.60;;;;;;;;;;5073542;28;20019;-80
2020/12/24 02:28:09;;;;;;;11.18;1.90;;;;;;;;;;5073845;28;20051;-79
2020/12/24 02:30:35;;;;;;;9.63;1.73;;;;;;;;;;5073422;28;20047;-79
2020/12/24 02:33:01;;;;;;;9.88;1.83;;;;;;;;;;5075078;28;20058;-78
2020/12/24 02:35:27;;;;;;;11.18;2.97;;;;;;;;;;5073644;28;20023;-78
2020/12/24 02:37:53;;;;;;;10.02;2.90;;;;;;;;;;5075286;28;20021;-78
2020/12/24 02:40:19;;;;;;;13.90;2.03;;;;;;;;;;5074975;28;20020;-79
2020/12/24 02:42:45;;;;;;;10.15;2.00;;;;;;;;;;5073472;28;20023;-79
2020/12/24 02:45:11;;;;;;;9.48;2.13;;;;;;;;;;5073592;28;20073;-79
2020/12/24 02:47:37;;;;;;;10.30;3.70;;;;;;;;;;5073310;28;20032;-79
2020/12/24 02:50:07;;;;;;;8.52;2.10;;;;;;;;;;5074844;28;20441;-79
2020/12/24 02:52:33;;;;;;;7.75;1.60;;;;;;;;;;5073398;28;20088;-80
2020/12/24 02:55:00;;;;;;;10.95;1.90;;;;;;;;;;5074724;28;20012;-79
2020/12/24 02:57:26;;;;;;;12.35;2.25;;;;;;;;;;5074993;28;20099;-79
2020/12/24 02:59:52;;;;;;;17.33;2.25;;;;;;;;;;5074341;28;20518;-79
2020/12/24 03:02:18;;;;;;;12.77;3.00;;;;;;;;;;5074327;28;20016;-79
2020/12/24 03:04:44;;;;;;;13.80;3.05;;;;;;;;;;5074387;28;20016;-79
2020/12/24 03:07:10;;;;;;;14.43;2.58;;;;;;;;;;5074641;28;20039;-80
2020/12/24 03:09:36;;;;;;;11.38;2.63;;;;;;;;;;5072956;28;20051;-80
2020/12/24 03:12:02;;;;;;;13.18;2.67;;;;;;;;;;5074686;28;20035;-80
2020/12/24 03:14:28;;;;;;;22.65;3.67;;;;;;;;;;5074406;28;20024;-81
2020/12/24 03:16:54;;;;;;;13.73;2.28;;;;;;;;;;5072996;28;20020;-79
2020/12/24 03:19:20;;;;;;;10.70;2.13;;;;;;;;;;5074469;28;20029;-79
2020/12/24 03:21:46;;;;;;;15.13;3.08;;;;;;;;;;5074109;28;20023;-79
2020/12/24 03:24:12;;;;;;;14.00;2.85;;;;;;;;;;5072455;28;20601;-79
2020/12/24 03:26:38;;;;;;;9.85;2.28;;;;;;;;;;5073917;28;20024;-78
2020/12/24 03:29:04;;;;;;;14.13;2.60;;;;;;;;;;5072601;28;20059;-78
2020/12/24 03:31:30;;;;;;;8.80;2.90;;;;;;;;;;5072199;28;20044;-77
2020/12/24 03:33:56;;;;;;;12.82;2.55;;;;;;;;;;5074176;28;20016;-79
2020/12/24 03:36:23;;;;;;;11.07;2.70;;;;;;;;;;5073679;28;20013;-78
2020/12/24 03:38:49;;;;;;;13.82;2.60;;;;;;;;;;5072367;28;20066;-79
2020/12/24 03:41:15;;;;;;;15.85;3.20;;;;;;;;;;5072511;28;20021;-79
2020/12/24 03:43:41;;;;;;;14.68;2.78;;;;;;;;;;5071942;28;20012;-78
2020/12/24 03:46:07;;;;;;;17.67;4.43;;;;;;;;;;5072377;28;20029;-79
2020/12/24 03:48:33;;;;;;;16.73;2.65;;;;;;;;;;5073484;28;20103;-79
2020/12/24 03:50:59;;;;;;;17.23;3.13;;;;;;;;;;5072404;28;20361;-79
2020/12/24 03:53:26;;;;;;;13.68;2.63;;;;;;;;;;5072257;28;20063;-79
2020/12/24 03:55:52;;;;;;;16.15;4.00;;;;;;;;;;5071977;28;20387;-79
2020/12/24 03:58:18;;;;;;;12.07;2.45;;;;;;;;;;5073490;28;20031;-79
2020/12/24 04:00:44;;;;;;;14.95;2.97;;;;;;;;;;5073194;28;20013;-79
2020/12/24 04:03:10;;;;;;;17.83;2.80;;;;;;;;;;5071986;28;20021;-79
2020/12/24 04:05:36;;;;;;;16.38;2.67;;;;;;;;;;5071736;28;20027;-80
2020/12/24 04:08:02;;;;;;;12.82;2.95;;;;;;;;;;5071924;28;20506;-80
2020/12/24 04:10:28;;;;;;;17.60;3.50;;;;;;;;;;5073210;28;20028;-80
2020/12/24 04:12:54;;;;;;;23.50;3.38;;;;;;;;;;5072615;28;20040;-80
2020/12/24 04:15:20;;;;;;;15.95;2.78;;;;;;;;;;5071794;28;20020;-80
2020/12/24 04:17:46;;;;;;;16.63;3.00;;;;;;;;;;5072816;28;20017;-80
2020/12/24 04:20:14;;;;;;;14.98;2.67;;;;;;;;;;5071880;28;20044;-80
2020/12/24 04:22:40;;;;;;;11.82;2.55;;;;;;;;;;5072735;28;20103;-80
2020/12/24 04:25:06;;;;;;;12.88;2.70;;;;;;;;;;5071505;28;20075;-80
2020/12/24 04:27:32;;;;;;;12.73;2.95;;;;;;;;;;5071533;28;20025;-80
2020/12/24 04:29:58;;;;;;;15.57;2.58;;;;;;;;;;5071484;28;20017;-80
2020/12/24 04:32:24;;;;;;;13.73;2.20;;;;;;;;;;5071576;28;20368;-80
2020/12/24 04:34:51;;;;;;;14.43;3.45;;;;;;;;;;5071232;28;20016;-80
2020/12/24 04:37:17;;;;;;;12.98;3.25;;;;;;;;;;5071544;28;20028;-80
2020/12/24 04:39:43;;;;;;;16.52;2.22;;;;;;;;;;5071541;28;20397;-80
2020/12/24 04:42:10;;;;;;;12.07;3.25;;;;;;;;;;5071435;28;20059;-80
2020/12/24 04:44:36;;;;;;;16.30;2.65;;;;;;;;;;5071209;28;20024;-80
2020/12/24 04:47:03;;;;;;;14.57;2.38;;;;;;;;;;5071369;28;20429;-79
2020/12/24 04:49:31;;;;;;;7.22;1.85;;;;;;;;;;5072341;28;20047;-79
2020/12/24 04:51:57;;;;;;;6.65;1.63;;;;;;;;;;5071108;28;20021;-80
2020/12/24 04:54:23;;;;;;;9.25;1.42;;;;;;;;;;5072580;28;20013;-80
2020/12/24 04:56:49;;;;;;;3.80;1.30;;;;;;;;;;5070948;28;20020;-81
2020/12/24 04:59:17;;;;;;;4.30;1.10;;;;;;;;;;5071233;28;20024;-80
2020/12/24 05:01:43;;;;;;;5.32;1.20;;;;;;;;;;5071098;28;20023;-80
2020/12/24 05:04:09;;;;;;;3.75;1.60;;;;;;;;;;5071179;28;20020;-79
2020/12/24 05:06:35;;;;;;;5.68;2.00;;;;;;;;;;5072232;28;20020;-79
2020/12/24 05:09:01;;;;;;;1.33;0.70;;;;;;;;;;5071095;28;20021;-79
2020/12/24 05:11:34;;;;;;;2.08;0.82;;;;;;;;;;5071118;28;20496;-78
2020/12/24 05:14:16;;;;;;;4.05;1.08;;;;;;;;;;5072180;28;20016;-78
2020/12/24 05:17:02;;;;;;;5.45;1.65;;;;;;;;;;5070901;28;20065;-78
2020/12/24 05:19:30;;;;;;;4.38;1.15;;;;;;;;;;5070818;28;20043;-78
2020/12/24 05:21:56;;;;;;;5.65;1.50;;;;;;;;;;5070760;28;20017;-78
2020/12/24 05:24:22;;;;;;;2.83;1.25;;;;;;;;;;5072952;28;20108;-78
2020/12/24 05:26:48;;;;;;;3.72;1.20;;;;;;;;;;5074761;28;20013;-79
2020/12/24 05:29:14;;;;;;;6.00;2.35;;;;;;;;;;5074930;28;20032;-78
2020/12/24 05:31:40;;;;;;;4.65;1.27;;;;;;;;;;5073437;28;20102;-78
2020/12/24 05:34:06;;;;;;;4.32;1.50;;;;;;;;;;5074799;28;20097;-78
2020/12/24 05:36:32;;;;;;;4.63;1.08;;;;;;;;;;5074576;28;20013;-78
2020/12/24 05:38:58;;;;;;;7.35;1.67;;;;;;;;;;5074296;28;20049;-78
2020/12/24 05:41:35;;;;;;;4.78;1.02;;;;;;;;;;5073456;28;20368;-78
2020/12/24 05:44:02;;;;;;;3.10;0.80;;;;;;;;;;5074700;28;20410;-78
2020/12/24 05:46:29;;;;;;;4.15;1.42;;;;;;;;;;5074718;28;20024;-78
2020/12/24 05:48:55;;;;;;;5.72;1.30;;;;;;;;;;5074215;28;20024;-78
2020/12/24 05:51:21;;;;;;;1.08;0.60;;;;;;;;;;5073338;28;20433;-78
2020/12/24 05:53:48;;;;;;;1.73;0.80;;;;;;;;;;5073061;28;20025;-79
2020/12/24 05:56:21;;;;;;;3.33;0.88;;;;;;;;;;5073165;28;20425;-78
2020/12/24 05:58:47;;;;;;;3.08;1.23;;;;;;;;;;5073000;28;20119;-79
2020/12/24 06:01:14;;;;;;;1.98;0.63;;;;;;;;;;5073245;28;20232;-79
2020/12/24 06:03:50;;;;;;;1.42;0.63;;;;;;;;;;5074144;28;20021;-78
2020/12/24 06:06:19;;;;;;;2.25;0.88;;;;;;;;;;5073093;28;20025;-78
2020/12/24 06:08:47;;;;;;;5.15;1.35;;;;;;;;;;5072648;28;20035;-78
2020/12/24 06:11:13;;;;;;;4.13;1.10;;;;;;;;;;5072854;28;20017;-79
2020/12/24 06:13:43;;;;;;;1.58;0.77;;;;;;;;;;5072826;28;20069;-79
2020/12/24 06:16:10;;;;;;;1.83;0.90;;;;;;;;;;5072856;28;20448;-80
2020/12/24 06:18:38;;;;;;;1.80;0.88;;;;;;;;;;5074094;28;20016;-78
2020/12/24 06:21:11;;;;;;;5.13;1.42;;;;;;;;;;5072537;28;20025;-78
2020/12/24 06:23:38;;;;;;;2.13;1.10;;;;;;;;;;5074079;28;20027;-79
2020/12/24 06:26:05;;;;;;;3.13;1.15;;;;;;;;;;5072442;28;20040;-78
2020/12/24 06:28:33;;;;;;;5.35;1.00;;;;;;;;;;5072601;28;20029;-79
2020/12/24 06:30:59;;;;;;;1.88;0.70;;;;;;;;;;5052144;28;587034;-79
2020/12/24 06:33:27;;;;;;;3.38;1.02;;;;;;;;;;5073607;28;20090;-78
2020/12/24 06:35:53;;;;;;;4.93;1.00;;;;;;;;;;5072786;28;20025;-78
2020/12/24 06:38:39;;;;;;;3.83;1.15;;;;;;;;;;5074977;28;20066;-78
2020/12/24 06:41:21;;;;;;;3.35;0.98;;;;;;;;;;5073253;28;20082;-77
2020/12/24 06:43:47;;;;;;;9.10;1.50;;;;;;;;;;5073431;28;20043;-77
2020/12/24 06:46:13;;;;;;;2.53;1.20;;;;;;;;;;5074836;28;20410;-77
2020/12/24 06:48:39;;;;;;;4.25;1.30;;;;;;;;;;5074495;28;20028;-77
2020/12/24 06:51:05;;;;;;;3.13;1.20;;;;;;;;;;5073244;28;20024;-78
2020/12/24 06:53:31;;;;;;;2.88;1.08;;;;;;;;;;5073398;28;20054;-78
2020/12/24 06:56:09;;;;;;;6.43;1.27;;;;;;;;;;5073107;28;20066;-78
2020/12/24 06:58:42;;;;;;;2.92;1.05;;;;;;;;;;5073338;28;20221;-78
2020/12/24 07:01:19;;;;;;;1.92;1.02;;;;;;;;;;5074671;28;20036;-78
2020/12/24 07:03:45;;;;;;;2.15;1.20;;;;;;;;;;5074298;28;20511;-79
2020/12/24 07:06:11;;;;;;;1.73;1.00;;;;;;;;;;5073179;28;20013;-79
2020/12/24 07:08:47;;;;;;;4.50;1.20;;;;;;;;;;5072983;28;20037;-79
2020/12/24 07:11:33;;;;;;;1.65;0.90;;;;;;;;;;5073139;28;20024;-78
2020/12/24 07:13:59;;;;;;;3.00;1.40;;;;;;;;;;5072616;28;20541;-78
2020/12/24 07:16:44;;;;;;;3.55;1.20;;;;;;;;;;5072992;28;20024;-78
2020/12/24 07:19:14;;;;;;;3.53;1.05;;;;;;;;;;5073943;28;20436;-78
2020/12/24 07:21:42;;;;;;;1.73;1.08;;;;;;;;;;5072917;28;20029;-76
2020/12/24 07:24:08;;;;;;;1.65;1.10;;;;;;;;;;5073710;28;20422;-77
2020/12/24 07:26:35;;;;;;;1.55;1.00;;;;;;;;;;5074117;28;20027;-77
2020/12/24 07:29:01;;;;;;;4.40;1.10;;;;;;;;;;5073743;28;20111;-79
2020/12/24 07:31:28;;;;;;;1.77;0.80;;;;;;;;;;5072416;28;20530;-78
2020/12/24 07:33:54;;;;;;;3.65;1.20;;;;;;;;;;5073537;28;20035;-78
2020/12/24 07:36:24;;;;;;;2.75;1.00;;;;;;;;;;5073794;28;20035;-78
2020/12/24 07:38:50;;;;;;;3.88;1.50;;;;;;;;;;5072102;28;20016;-78
2020/12/24 07:41:17;;;;;;;1.83;0.90;;;;;;;;;;5072405;28;20023;-78
2020/12/24 07:43:43;;;;;;;3.53;1.50;;;;;;;;;;5072379;28;20023;-79
2020/12/24 07:46:09;;;;;;;6.82;1.50;;;;;;;;;;5071917;28;20099;-78
2020/12/24 07:48:35;;;;;;;3.47;1.08;;;;;;;;;;5072581;28;20021;-78
2020/12/24 07:51:07;;;;;;;4.07;1.40;;;;;;;;;;5071965;28;20111;-78
2020/12/24 07:53:34;;;;;;;3.40;1.58;;;;;;;;;;5072093;28;20024;-78
2020/12/24 07:56:06;;;;;;;5.00;2.20;;;;;;;;;;5073205;28;20036;-78
2020/12/24 07:58:34;;;;;;;4.20;2.30;;;;;;;;;;5072082;28;20025;-78
2020/12/24 08:01:02;;;;;;;2.45;1.50;;;;;;;;;;5073469;28;20097;-78
2020/12/24 08:03:28;;;;;;;4.57;2.13;;;;;;;;;;5071893;28;20021;-78
2020/12/24 08:06:02;;;;;;;4.10;1.75;;;;;;;;;;5071695;28;20157;-78
2020/12/24 08:08:30;;;;;;;2.92;1.52;;;;;;;;;;5071722;28;20111;-79
2020/12/24 08:10:57;;;;;;;4.63;1.67;;;;;;;;;;5071570;28;20024;-78
2020/12/24 08:13:23;;;;;;;2.83;1.40;;;;;;;;;;5071769;28;20013;-79
2020/12/24 08:15:50;;;;;;;2.38;1.33;;;;;;;;;;5071233;28;20023;-78
2020/12/24 08:18:20;;;;;;;2.70;1.10;;;;;;;;;;5072604;28;20453;-78
2020/12/24 08:21:07;;;;;;;2.55;1.40;;;;;;;;;;5071242;28;20025;-78
2020/12/24 08:23:51;;;;;;;5.78;1.30;;;;;;;;;;5071215;28;20017;-78
2020/12/24 08:26:18;;;;;;;2.65;1.10;;;;;;;;;;5072281;28;20533;-78
2020/12/24 08:28:51;;;;;;;3.42;1.50;;;;;;;;;;5061972;28;20052;-79
2020/12/24 08:31:18;;;;;;;2.85;1.30;;;;;;;;;;5061215;28;20040;-78
2020/12/24 08:33:47;;;;;;;4.05;1.83;;;;;;;;;;5059147;28;20016;-79
2020/12/24 08:36:15;;;;;;;5.65;1.48;;;;;;;;;;5058613;28;20074;-78
2020/12/24 08:38:41;;;;;;;4.05;1.85;;;;;;;;;;5061114;28;20044;-78
2020/12/24 08:41:07;;;;;;;4.95;2.05;;;;;;;;;;5059590;28;20016;-78
2020/12/24 08:43:33;;;;;;;3.33;1.58;;;;;;;;;;5058431;28;20457;-80
2020/12/24 08:46:00;;;;;;;2.30;1.60;;;;;;;;;;5062177;28;20092;-79
2020/12/24 08:48:29;;;;;;;5.10;2.97;;;;;;;;;;5060698;28;20025;-79
2020/12/24 08:50:56;;;;;;;5.25;2.05;;;;;;;;;;5059019;28;20202;-78
2020/12/24 08:53:22;;;;;;;4.35;1.80;;;;;;;;;;5061101;28;20020;-79
2020/12/24 08:55:48;;;;;;;3.83;1.77;;;;;;;;;;5065761;28;20537;-79
2020/12/24 08:58:14;;;;;;;3.55;1.83;;;;;;;;;;5072182;28;20052;-79
2020/12/24 09:00:40;;;;;;;4.13;2.42;;;;;;;;;;5071155;28;20020;-78
2020/12/24 09:03:22;;;;;;;3.63;1.83;;;;;;;;;;5072465;28;20460;-78
2020/12/24 09:05:49;;;;;;;3.28;1.73;;;;;;;;;;5072183;28;20024;-78
2020/12/24 09:08:25;;;;;;;3.25;1.73;;;;;;;;;;5071003;28;20028;-78
2020/12/24 09:10:51;;;;;;;4.57;1.98;;;;;;;;;;5070878;28;20502;-78
2020/12/24 09:13:17;;;;;;;2.78;1.80;;;;;;;;;;5071009;28;20016;-80
2020/12/24 09:15:44;;;;;;;4.28;2.53;;;;;;;;;;5072268;28;20512;-80
2020/12/24 09:18:10;;;;;;;5.55;2.03;;;;;;;;;;5070619;28;20025;-78
2020/12/24 09:20:38;;;;;;;4.47;2.35;;;;;;;;;;5070991;28;20047;-80
2020/12/24 09:23:15;;;;;;;5.78;2.40;;;;;;;;;;5060086;28;20029;-81
2020/12/24 09:25:41;;;;;;;4.78;2.13;;;;;;;;;;5057576;28;20031;-79
2020/12/24 09:28:18;;;;;;;5.30;2.90;;;;;;;;;;5050636;28;20079;-79
2020/12/24 09:30:44;;;;;;;5.78;2.65;;;;;;;;;;5052077;28;20036;-79
2020/12/24 09:33:10;;;;;;;4.78;2.60;;;;;;;;;;5051777;28;20051;-79
2020/12/24 09:35:36;;;;;;;4.40;2.65;;;;;;;;;;5067731;28;20060;-80
2020/12/24 09:38:02;;;;;;;4.55;2.70;;;;;;;;;;5064017;28;20031;-80
2020/12/24 09:40:28;;;;;;;5.15;2.67;;;;;;;;;;5058466;28;20025;-80
2020/12/24 09:42:54;;;;;;;5.40;2.83;;;;;;;;;;5057433;28;20506;-80
2020/12/24 09:45:23;;;;;;;6.03;2.47;;;;;;;;;;5059851;28;20028;-80
2020/12/24 09:47:49;;;;;;;4.30;2.22;;;;;;;;;;5058019;28;20065;-81
2020/12/24 09:50:15;;;;;;;5.85;2.40;;;;;;;;;;5064337;28;20437;-80
2020/12/24 09:52:41;;;;;;;4.18;2.38;;;;;;;;;;5059480;28;20369;-80
2020/12/24 09:55:11;;;;;;;4.22;2.15;;;;;;;;;;5058171;28;20213;-81
2020/12/24 09:57:41;;;;;;;9.27;3.78;;;;;;;;;;5059517;28;20009;-80
2020/12/24 10:00:10;;;;;;;5.03;1.90;;;;;;;;;;5058316;28;20087;-81
2020/12/24 10:02:37;;;;;;;4.00;1.90;;;;;;;;;;5056816;28;20069;-79
2020/12/24 10:05:03;;;;;;;9.40;2.40;;;;;;;;;;5056440;28;20104;-80
2020/12/24 10:07:29;;;;;;;5.55;2.47;;;;;;;;;;5055209;28;20094;-80
2020/12/24 10:09:55;;;;;;;5.15;2.65;;;;;;;;;;5059580;28;20732;-79
2020/12/24 10:12:23;;;;;;;6.53;2.63;;;;;;;;;;5073173;28;20025;-80
2020/12/24 10:14:49;;;;;;;7.10;2.70;;;;;;;;;;5075075;28;20044;-81
2020/12/24 10:17:15;;;;;;;6.00;2.47;;;;;;;;;;5062424;28;20461;-79
2020/12/24 10:19:45;;;;;;;5.53;2.30;;;;;;;;;;5057473;28;20017;-79
2020/12/24 10:22:12;;;;;;;6.95;2.88;;;;;;;;;;5061202;28;20115;-80
2020/12/24 10:24:40;;;;;;;5.45;2.30;;;;;;;;;;5061565;28;20016;-79
2020/12/24 10:27:06;;;;;;;5.82;2.47;;;;;;;;;;5060917;28;20032;-81
2020/12/24 10:29:32;;;;;;;17.30;5.68;;;;;;;;;;5066017;28;20051;-81
2020/12/24 10:31:58;;;;;;;15.50;4.70;;;;;;;;;;5064652;28;20037;-80
2020/12/24 10:34:24;;;;;;;44.85;24.70;;;;;;;;;;5067001;28;20020;-80
2020/12/24 10:36:50;;;;;;;11.05;2.80;;;;;;;;;;5064338;28;20021;-78
2020/12/24 10:39:16;;;;;;;8.38;5.13;;;;;;;;;;5064402;28;20329;-81
2020/12/24 10:41:48;;;;;;;25.10;22.70;;;;;;;;;;5061652;28;20461;-79
2020/12/24 10:44:14;;;;;;;10.25;2.70;;;;;;;;;;5065740;28;20023;-81
2020/12/24 10:46:40;;;;;;;6.07;1.90;;;;;;;;;;5063426;28;20020;-80
2020/12/24 10:49:06;;;;;;;8.48;2.97;;;;;;;;;;5064005;28;20082;-80
2020/12/24 10:51:32;;;;;;;8.30;4.75;;;;;;;;;;5073408;28;20021;-78
2020/12/24 10:53:58;;;;;;;11.60;3.33;;;;;;;;;;5072965;28;20479;-79
2020/12/24 10:56:24;;;;;;;5.20;2.33;;;;;;;;;;5074564;28;20021;-79
2020/12/24 10:58:50;;;;;;;9.40;3.50;;;;;;;;;;5072910;28;20025;-79
2020/12/24 11:01:17;;;;;;;9.18;2.65;;;;;;;;;;5073084;28;20452;-79
2020/12/24 11:03:44;;;;;;;11.23;3.65;;;;;;;;;;5072923;28;20096;-79
2020/12/24 11:06:17;;;;;;;8.23;2.25;;;;;;;;;;5073966;28;20024;-79
2020/12/24 11:08:43;;;;;;;10.30;2.00;;;;;;;;;;5072926;28;20031;-79
2020/12/24 11:11:09;;;;;;;8.07;2.30;;;;;;;;;;5072725;28;20027;-80
2020/12/24 11:13:35;;;;;;;8.75;2.50;;;;;;;;;;5065605;28;20029;-79
2020/12/24 11:16:01;;;;;;;5.07;1.85;;;;;;;;;;5061807;28;20028;-82
2020/12/24 11:18:27;;;;;;;5.22;1.88;;;;;;;;;;5064465;28;20403;-81
2020/12/24 11:20:55;;;;;;;5.68;2.13;;;;;;;;;;5072114;28;20021;-80
2020/12/24 11:23:23;;;;;;;9.50;2.78;;;;;;;;;;5067868;28;20111;-80
2020/12/24 11:25:51;;;;;;;7.38;2.50;;;;;;;;;;5063503;28;20013;-82
2020/12/24 11:28:17;;;;;;;8.48;2.05;;;;;;;;;;5073870;28;20035;-82
2020/12/24 11:30:43;;;;;;;8.18;2.58;;;;;;;;;;5062687;28;20050;-82
2020/12/24 11:33:10;;;;;;;7.22;2.10;;;;;;;;;;5062592;28;20063;-82
2020/12/24 11:35:37;;;;;;;9.77;2.13;;;;;;;;;;5061164;28;20102;-82
2020/12/24 11:38:04;;;;;;;11.60;2.10;;;;;;;;;;5059613;28;20017;-81
2020/12/24 11:40:30;;;;;;;6.05;2.60;;;;;;;;;;5054192;28;20418;-82
2020/12/24 11:42:56;;;;;;;17.95;2.40;;;;;;;;;;5052106;28;20116;-81
2020/12/24 11:45:22;;;;;;;7.13;1.85;;;;;;;;;;5055911;28;20365;-82
2020/12/24 11:47:48;;;;;;;8.25;1.88;;;;;;;;;;5060554;28;20075;-83
2020/12/24 11:50:14;;;;;;;15.15;3.05;;;;;;;;;;5067236;28;20023;-83
2020/12/24 11:52:40;;;;;;;8.95;3.10;;;;;;;;;;5072727;28;20024;-79
2020/12/24 11:55:06;;;;;;;9.20;3.08;;;;;;;;;;5070982;28;20020;-83
2020/12/24 11:57:35;;;;;;;13.07;3.83;;;;;;;;;;5069910;28;20089;-82
2020/12/24 12:00:01;;;;;;;12.10;3.22;;;;;;;;;;5061194;28;20099;-84
2020/12/24 12:02:27;;;;;;;14.13;3.65;;;;;;;;;;5057102;28;20075;-84
2020/12/24 12:04:53;;;;;;;20.80;4.85;;;;;;;;;;5063121;28;20021;-83
2020/12/24 12:07:19;;;;;;;12.10;3.78;;;;;;;;;;5073730;28;20586;-84
2020/12/24 12:09:46;;;;;;;11.27;2.95;;;;;;;;;;5071859;28;20040;-82
2020/12/24 12:12:12;;;;;;;11.93;2.63;;;;;;;;;;5071691;28;20023;-81
2020/12/24 12:14:38;;;;;;;11.93;2.40;;;;;;;;;;5071829;28;20022;-81
2020/12/24 12:17:12;;;;;;;14.15;2.40;;;;;;;;;;5071544;28;20023;-80
2020/12/24 12:19:43;;;;;;;15.02;2.85;;;;;;;;;;5071706;28;20074;-78
2020/12/24 12:22:10;;;;;;;7.30;2.30;;;;;;;;;;5071445;28;20039;-81
2020/12/24 12:24:36;;;;;;;12.80;2.83;;;;;;;;;;5066764;28;20028;-79
2020/12/24 12:27:02;;;;;;;14.13;3.20;;;;;;;;;;5055533;28;20012;-79
2020/12/24 12:29:28;;;;;;;11.63;2.67;;;;;;;;;;5070315;28;20032;-79
2020/12/24 12:31:54;;;;;;;15.13;2.92;;;;;;;;;;5070535;28;20036;-80
2020/12/24 12:34:20;;;;;;;14.65;2.42;;;;;;;;;;5070735;28;20468;-81
2020/12/24 12:36:47;;;;;;;12.77;2.25;;;;;;;;;;5071093;28;20013;-78
2020/12/24 12:39:13;;;;;;;9.77;1.80;;;;;;;;;;5070735;28;20046;-83
2020/12/24 12:41:39;;;;;;;10.10;2.85;;;;;;;;;;5071293;28;20024;-80
2020/12/24 12:44:05;;;;;;;14.73;3.83;;;;;;;;;;5071061;28;20066;-80
2020/12/24 12:46:31;;;;;;;14.32;3.40;;;;;;;;;;5071234;28;20368;-81
2020/12/24 12:48:57;;;;;;;13.77;3.22;;;;;;;;;;5070831;28;20024;-86
2020/12/24 12:51:23;;;;;;;9.43;1.83;;;;;;;;;;5069678;28;20027;-86
2020/12/24 12:53:49;;;;;;;13.00;2.40;;;;;;;;;;5062179;28;20075;-86
2020/12/24 12:56:22;;;;;;;13.38;2.92;;;;;;;;;;5060958;28;20344;-86
2020/12/24 12:58:49;;;;;;;11.02;1.90;;;;;;;;;;5058985;28;20449;-86
2020/12/24 13:01:16;;;;;;;13.85;2.00;;;;;;;;;;5065029;28;20401;-85
2020/12/24 13:03:42;;;;;;;10.30;1.90;;;;;;;;;;5064033;28;20017;-88
2020/12/24 13:06:15;;;;;;;14.05;3.55;;;;;;;;;;5070762;28;20024;-87
2020/12/24 13:08:43;;;;;;;14.23;3.45;;;;;;;;;;5071085;28;20029;-85
2020/12/24 13:11:09;;;;;;;12.27;2.40;;;;;;;;;;5070804;28;20026;-85
2020/12/24 13:13:35;;;;;;;12.90;1.95;;;;;;;;;;5071074;28;20103;-84
2020/12/24 13:16:01;;;;;;;14.57;2.30;;;;;;;;;;5069648;28;20476;-83
2020/12/24 13:18:28;;;;;;;13.02;2.00;;;;;;;;;;5070401;28;20028;-83
2020/12/24 13:20:56;;;;;;;13.18;1.88;;;;;;;;;;5070694;28;20027;-84
2020/12/24 13:23:23;;;;;;;7.85;1.50;;;;;;;;;;5070269;28;20017;-84
2020/12/24 13:25:49;;;;;;;9.32;1.50;;;;;;;;;;5055320;28;20024;-82
2020/12/24 13:28:15;;;;;;;15.00;1.90;;;;;;;;;;5050019;28;20074;-82
2020/12/24 13:30:41;;;;;;;12.65;2.63;;;;;;;;;;5051617;28;20066;-83
2020/12/24 13:33:08;;;;;;;12.55;1.80;;;;;;;;;;5049936;28;20021;-83
2020/12/24 13:35:34;;;;;;;9.90;1.88;;;;;;;;;;5051454;28;20018;-81
2020/12/24 13:38:00;;;;;;;17.42;2.47;;;;;;;;;;5049674;28;20086;-82
2020/12/24 13:40:26;;;;;;;9.98;2.30;;;;;;;;;;5050146;28;20029;-82
2020/12/24 13:42:52;;;;;;;12.82;1.73;;;;;;;;;;5050149;28;20025;-82
2020/12/24 13:45:18;;;;;;;15.57;2.42;;;;;;;;;;5050428;28;20028;-83
2020/12/24 13:47:44;;;;;;;11.20;2.17;;;;;;;;;;5073974;28;20103;-83
2020/12/24 13:50:10;;;;;;;12.20;2.08;;;;;;;;;;5073302;28;20017;-84
2020/12/24 13:52:37;;;;;;;12.68;2.63;;;;;;;;;;5087880;28;20020;-85
2020/12/24 13:55:03;;;;;;;7.85;1.90;;;;;;;;;;5076290;28;20053;-85
2020/12/24 13:57:30;;;;;;;16.33;1.90;;;;;;;;;;5089100;28;20027;-84
2020/12/24 13:59:57;;;;;;;10.13;1.50;;;;;;;;;;5081696;28;20016;-82
2020/12/24 14:02:28;;;;;;;9.95;1.23;;;;;;;;;;5081118;28;20021;-82
2020/12/24 14:04:54;;;;;;;10.38;1.55;;;;;;;;;;5089825;28;20065;-83
2020/12/24 14:07:20;;;;;;;11.45;1.73;;;;;;;;;;5078087;28;20016;-83
2020/12/24 14:09:46;;;;;;;11.20;1.55;;;;;;;;;;5086955;28;20540;-84
2020/12/24 14:12:12;;;;;;;11.50;1.80;;;;;;;;;;5084845;28;20827;-83
2020/12/24 14:14:38;;;;;;;11.80;2.00;;;;;;;;;;5079052;28;20021;-85
2020/12/24 14:17:04;;;;;;;8.68;1.17;;;;;;;;;;5089245;28;20124;-84
2020/12/24 14:19:30;;;;;;;13.50;1.52;;;;;;;;;;5077801;28;20027;-83
2020/12/24 14:21:58;;;;;;;11.55;1.77;;;;;;;;;;5085407;28;20104;-84
2020/12/24 14:24:25;;;;;;;9.85;1.60;;;;;;;;;;5078746;28;20071;-81
2020/12/24 14:26:53;;;;;;;7.43;1.33;;;;;;;;;;5085244;28;20024;-82
2020/12/24 14:29:19;;;;;;;13.45;2.42;;;;;;;;;;5076252;28;20085;-82
2020/12/24 14:31:45;;;;;;;9.38;1.30;;;;;;;;;;5085784;28;20036;-82
2020/12/24 14:34:11;;;;;;;10.68;1.50;;;;;;;;;;5077711;28;20074;-83
2020/12/24 14:36:37;;;;;;;8.82;1.50;;;;;;;;;;5072574;28;20020;-83
2020/12/24 14:39:04;;;;;;;6.45;1.40;;;;;;;;;;5073039;28;20036;-83